createdAt,value
2018-02-19T00:04:33.459Z,48.00
2018-02-19T00:07:02.562Z,50.65
2018-02-19T00:09:31.091Z,43.95
2018-02-19T00:11:59.865Z,47.95
2018-02-19T00:14:28.808Z,46.20
2018-02-19T00:16:57.793Z,38.97
2018-02-19T00:19:26.211Z,46.88
2018-02-19T00:21:55.499Z,43.08
2018-02-19T00:24:24.777Z,48.40
2018-02-19T00:44:11.074Z,43.80
2018-02-19T00:46:39.922Z,42.47
2018-02-19T00:49:07.804Z,42.65
2018-02-19T00:51:36.973Z,41.03
2018-02-19T00:54:05.938Z,41.95
2018-02-19T00:56:34.817Z,38.50
2018-02-19T00:59:04.027Z,40.75
2018-02-19T01:01:32.581Z,43.00
2018-02-19T01:04:01.546Z,45.80
2018-02-19T01:23:47.081Z,44.35
2018-02-19T01:26:18.048Z,38.63
2018-02-19T01:28:46.390Z,38.60
2018-02-19T01:31:15.936Z,39.47
2018-02-19T01:33:44.835Z,41.78
2018-02-19T01:36:13.383Z,36.83
2018-02-19T01:38:42.450Z,45.40
2018-02-19T01:41:10.924Z,41.10
2018-02-19T01:43:40.900Z,42.38
2018-02-19T02:03:26.946Z,39.92
2018-02-19T02:05:56.544Z,36.92
2018-02-19T02:08:25.849Z,33.78
2018-02-19T02:10:54.323Z,39.80
2018-02-19T02:13:23.639Z,39.55
2018-02-19T02:15:53.304Z,39.08
2018-02-19T02:18:23.345Z,41.30
2018-02-19T02:20:52.623Z,40.15
2018-02-19T02:44:09.268Z,47.92
2018-02-19T02:46:37.618Z,42.10
2018-02-19T02:49:07.168Z,38.70
2018-02-19T02:51:36.096Z,38.13
2018-02-19T02:54:05.147Z,41.42
2018-02-19T02:56:34.231Z,40.47
2018-02-19T02:59:03.816Z,37.90
2018-02-19T03:01:32.422Z,43.17
2018-02-19T03:04:02.117Z,38.33
2018-02-19T03:23:47.537Z,44.20
2018-02-19T03:26:16.262Z,41.25
2018-02-19T03:28:45.226Z,38.35
2018-02-19T03:31:15.063Z,33.33
2018-02-19T03:33:43.126Z,39.85
2018-02-19T03:36:11.157Z,41.53
2018-02-19T03:38:39.904Z,37.90
2018-02-19T03:41:08.406Z,36.78
2018-02-19T03:43:36.545Z,41.50
2018-02-19T04:03:23.084Z,41.08
2018-02-19T04:05:52.044Z,41.40
2018-02-19T04:08:21.368Z,37.17
2018-02-19T04:10:49.845Z,36.47
2018-02-19T04:13:18.530Z,38.90
2018-02-19T04:15:47.383Z,40.90
2018-02-19T04:18:17.100Z,38.58
2018-02-19T04:20:45.301Z,43.03
2018-02-19T04:23:14.060Z,41.00
2018-02-19T04:42:58.722Z,35.88
2018-02-19T04:45:27.857Z,38.58
2018-02-19T04:47:56.036Z,41.28
2018-02-19T04:50:24.784Z,39.35
2018-02-19T04:52:53.760Z,42.00
2018-02-19T04:55:22.237Z,38.15
2018-02-19T04:57:51.354Z,38.25
2018-02-19T05:00:21.008Z,41.78
2018-02-19T05:02:50.644Z,43.72
2018-02-19T05:22:37.521Z,38.58
2018-02-19T05:25:07.659Z,48.92
2018-02-19T05:27:37.168Z,46.70
2018-02-19T05:30:06.705Z,42.75
2018-02-19T05:32:36.295Z,43.67
2018-02-19T05:35:05.501Z,44.65
2018-02-19T05:37:34.871Z,46.70
2018-02-19T05:40:03.225Z,39.40
2018-02-19T05:42:31.608Z,41.75
2018-02-19T06:02:17.539Z,38.85
2018-02-19T06:04:46.924Z,42.88
2018-02-19T06:07:16.448Z,42.28
2018-02-19T06:09:45.735Z,44.35
2018-02-19T06:12:14.391Z,46.50
2018-02-19T06:14:45.824Z,43.30
2018-02-19T06:17:15.435Z,49.85
2018-02-19T06:19:44.164Z,40.53
2018-02-19T06:22:12.931Z,44.45
2018-02-19T06:41:57.407Z,47.95
2018-02-19T06:44:25.851Z,52.88
2018-02-19T06:46:54.306Z,43.75
2018-02-19T06:49:23.015Z,51.58
2018-02-19T06:51:52.135Z,44.65
2018-02-19T06:54:21.750Z,47.95
2018-02-19T06:56:50.755Z,50.97
2018-02-19T06:59:19.898Z,46.78
2018-02-19T07:01:48.107Z,42.55
2018-02-19T07:21:32.004Z,47.42
2018-02-19T07:24:00.556Z,43.50
2018-02-19T07:26:29.644Z,45.67
2018-02-19T07:28:58.652Z,51.05
2018-02-19T07:31:27.568Z,43.28
2018-02-19T07:33:57.163Z,45.65
2018-02-19T07:36:25.779Z,48.92
2018-02-19T07:38:54.633Z,42.85
2018-02-19T07:41:23.737Z,50.60
2018-02-19T08:01:09.344Z,45.83
2018-02-19T08:03:38.207Z,44.25
2018-02-19T08:06:07.931Z,44.13
2018-02-19T08:08:36.634Z,45.70
2018-02-19T08:11:06.126Z,47.28
2018-02-19T08:13:35.014Z,27.13
2018-02-19T08:16:04.821Z,48.58
2018-02-19T08:18:34.122Z,45.78
2018-02-19T08:21:03.254Z,44.35
2018-02-19T08:40:50.559Z,45.38
2018-02-19T08:43:19.819Z,47.85
2018-02-19T08:45:48.923Z,51.83
2018-02-19T08:48:17.441Z,45.17
2018-02-19T08:50:46.600Z,47.00
2018-02-19T08:53:14.822Z,44.83
2018-02-19T08:55:44.202Z,50.75
2018-02-19T08:58:13.621Z,41.22
2018-02-19T09:00:41.885Z,40.30
2018-02-19T09:20:26.447Z,49.45
2018-02-19T09:22:55.936Z,46.70
2018-02-19T09:25:23.975Z,47.03
2018-02-19T09:27:52.147Z,52.92
2018-02-19T09:30:21.364Z,50.05
2018-02-19T09:32:51.355Z,46.55
2018-02-19T09:35:20.219Z,52.25
2018-02-19T09:37:48.911Z,50.10
2018-02-19T09:40:18.615Z,56.10
2018-02-19T10:00:02.427Z,51.78
2018-02-19T10:02:31.702Z,54.80
2018-02-19T10:05:00.054Z,52.87
2018-02-19T10:07:28.888Z,57.45
2018-02-19T10:09:57.767Z,50.95
2018-02-19T10:12:27.092Z,48.58
2018-02-19T10:14:55.838Z,48.00
2018-02-19T10:17:24.999Z,46.45
2018-02-19T10:19:54.504Z,46.95
2018-02-19T10:39:39.582Z,49.15
2018-02-19T10:42:08.864Z,48.90
2018-02-19T10:44:36.798Z,43.05
2018-02-19T10:47:05.163Z,51.45
2018-02-19T10:49:34.378Z,36.83
2018-02-19T10:52:04.058Z,43.58
2018-02-19T10:54:33.649Z,56.58
2018-02-19T10:57:02.062Z,44.55
2018-02-19T10:59:31.140Z,42.70
2018-02-19T11:19:16.486Z,53.00
2018-02-19T11:21:45.496Z,47.92
2018-02-19T11:24:14.631Z,50.10
2018-02-19T11:26:43.114Z,53.00
2018-02-19T11:29:11.503Z,49.43
2018-02-19T11:31:40.428Z,51.43
2018-02-19T11:34:10.870Z,49.43
2018-02-19T11:36:39.016Z,45.87
2018-02-19T11:39:07.496Z,46.53
2018-02-19T11:58:52.687Z,55.60
2018-02-19T12:01:21.607Z,49.80
2018-02-19T12:03:50.621Z,53.00
2018-02-19T12:06:18.685Z,74.07
2018-02-19T12:08:47.284Z,52.90
2018-02-19T12:11:15.543Z,60.25
2018-02-19T12:13:43.836Z,47.80
2018-02-19T12:16:14.006Z,53.90
2018-02-19T12:18:43.976Z,52.00
2018-02-19T12:38:29.711Z,49.27
2018-02-19T12:40:58.781Z,48.38
2018-02-19T12:43:28.476Z,41.28
2018-02-19T12:45:57.002Z,54.90
2018-02-19T12:48:25.742Z,52.90
2018-02-19T12:50:54.052Z,54.78
2018-02-19T12:53:22.571Z,52.95
2018-02-19T12:55:52.072Z,62.47
2018-02-19T12:58:21.021Z,51.58
2018-02-19T13:18:07.027Z,60.53
2018-02-19T13:20:35.510Z,47.55
2018-02-19T13:23:04.231Z,46.37
2018-02-19T13:25:34.010Z,49.00
2018-02-19T13:28:02.554Z,47.83
2018-02-19T13:30:30.925Z,57.25
2018-02-19T13:32:59.805Z,43.20
2018-02-19T13:35:28.851Z,55.40
2018-02-19T13:37:58.598Z,54.70
2018-02-19T13:57:42.402Z,51.37
2018-02-19T14:00:11.425Z,64.95
2018-02-19T14:02:39.678Z,56.33
2018-02-19T14:05:09.072Z,54.78
2018-02-19T14:07:37.585Z,53.75
2018-02-19T14:10:06.375Z,45.05
2018-02-19T14:12:35.420Z,66.68
2018-02-19T14:15:05.105Z,51.47
2018-02-19T14:17:34.618Z,58.55
2018-02-19T14:37:18.930Z,59.25
2018-02-19T14:39:47.904Z,52.38
2018-02-19T14:42:15.990Z,57.13
2018-02-19T14:44:44.447Z,49.75
2018-02-19T14:47:14.204Z,58.45
2018-02-19T14:49:43.254Z,52.03
2018-02-19T14:52:11.816Z,54.00
2018-02-19T14:54:40.324Z,51.22
2018-02-19T14:57:09.077Z,59.08
2018-02-19T15:16:54.861Z,52.75
2018-02-19T15:19:23.429Z,51.92
2018-02-19T15:21:53.036Z,56.28
2018-02-19T15:24:22.357Z,58.50
2018-02-19T15:26:50.829Z,57.83
2018-02-19T15:29:19.017Z,54.80
2018-02-19T15:31:47.400Z,53.15
2018-02-19T15:34:16.562Z,48.75
2018-02-19T15:36:44.950Z,57.88
2018-02-19T15:56:32.607Z,56.78
2018-02-19T15:59:02.119Z,54.45
2018-02-19T16:01:30.788Z,52.67
2018-02-19T16:03:59.889Z,55.20
2018-02-19T16:06:28.733Z,55.60
2018-02-19T16:08:57.580Z,53.85
2018-02-19T16:11:26.396Z,55.85
2018-02-19T16:13:56.046Z,54.33
2018-02-19T16:16:24.765Z,48.05
2018-02-19T16:36:11.409Z,60.30
2018-02-19T16:38:41.289Z,65.95
2018-02-19T16:41:09.503Z,54.80
2018-02-19T16:43:38.848Z,71.68
2018-02-19T16:46:07.356Z,61.20
2018-02-19T16:48:36.988Z,53.97
2018-02-19T16:51:06.012Z,60.00
2018-02-19T16:53:34.967Z,55.05
2018-02-19T16:56:03.657Z,57.22
2018-02-19T17:15:47.522Z,60.85
2018-02-19T17:18:16.253Z,54.67
2018-02-19T17:20:45.375Z,69.85
2018-02-19T17:23:13.659Z,64.37
2018-02-19T17:25:42.869Z,66.07
2018-02-19T17:28:11.043Z,66.87
2018-02-19T17:30:40.927Z,63.72
2018-02-19T17:33:10.569Z,69.85
2018-02-19T17:35:40.141Z,68.97
2018-02-19T17:55:24.935Z,62.45
2018-02-19T17:57:54.408Z,72.28
2018-02-19T18:00:23.354Z,63.80
2018-02-19T18:02:51.779Z,65.07
2018-02-19T18:05:21.606Z,72.37
2018-02-19T18:07:51.310Z,70.78
2018-02-19T18:10:20.320Z,64.93
2018-02-19T18:12:48.896Z,60.78
2018-02-19T18:15:17.750Z,62.53
2018-02-19T18:35:03.646Z,73.53
2018-02-19T18:37:32.482Z,64.95
2018-02-19T18:40:01.801Z,60.25
2018-02-19T18:42:32.400Z,58.40
2018-02-19T18:45:02.290Z,64.80
2018-02-19T18:47:31.757Z,62.17
2018-02-19T18:50:01.211Z,60.12
2018-02-19T18:52:30.923Z,66.97
2018-02-19T19:16:09.231Z,77.97
2018-02-19T19:18:38.296Z,75.47
2018-02-19T19:21:06.765Z,76.12
2018-02-19T19:23:35.032Z,61.05
2018-02-19T19:26:06.056Z,70.95
2018-02-19T19:28:34.539Z,68.45
2018-02-19T19:31:04.784Z,76.37
2018-02-19T19:33:33.602Z,75.05
2018-02-19T19:36:02.431Z,81.35
2018-02-19T19:55:48.154Z,81.15
2018-02-19T19:58:17.971Z,76.25
2018-02-19T20:00:46.681Z,79.97
2018-02-19T20:03:16.942Z,85.20
2018-02-19T20:05:45.599Z,78.90
2018-02-19T20:08:14.616Z,82.00
2018-02-19T20:10:44.106Z,84.07
2018-02-19T20:13:12.586Z,79.53
2018-02-19T20:15:41.820Z,76.22
2018-02-19T20:35:26.393Z,74.68
2018-02-19T20:37:55.836Z,82.72
2018-02-19T20:40:25.346Z,76.05
2018-02-19T20:42:53.486Z,73.70
2018-02-19T20:45:22.132Z,69.28
2018-02-19T20:47:50.681Z,84.78
2018-02-19T20:50:18.888Z,76.22
2018-02-19T20:52:47.558Z,79.37
2018-02-19T20:55:16.358Z,74.57
2018-02-19T21:15:01.763Z,75.68
2018-02-19T21:17:30.752Z,78.00
2018-02-19T21:20:00.222Z,91.80
2018-02-19T21:22:28.417Z,74.40
2018-02-19T21:24:57.905Z,80.07
2018-02-19T21:27:26.590Z,83.62
2018-02-19T21:29:56.381Z,79.55
2018-02-19T21:32:25.483Z,86.63
2018-02-19T21:34:53.708Z,77.50
2018-02-19T21:54:39.914Z,87.68
2018-02-19T21:57:07.924Z,96.10
2018-02-19T21:59:36.228Z,74.20
2018-02-19T22:02:04.687Z,78.07
2018-02-19T22:04:33.733Z,84.37
2018-02-19T22:07:02.166Z,87.68
2018-02-19T22:09:30.837Z,83.60
2018-02-19T22:11:59.001Z,81.15
2018-02-19T22:14:27.474Z,79.72
2018-02-19T22:34:14.107Z,85.57
2018-02-19T22:36:42.753Z,86.63
2018-02-19T22:39:12.002Z,84.40
2018-02-19T22:41:41.314Z,89.72
2018-02-19T22:44:09.962Z,85.62
2018-02-19T22:46:38.301Z,85.50
2018-02-19T22:49:06.983Z,84.40
2018-02-19T22:51:35.766Z,75.00
2018-02-19T22:54:04.946Z,74.80
2018-02-19T23:13:49.045Z,90.22
2018-02-19T23:16:19.084Z,85.53
2018-02-19T23:18:47.350Z,91.82
2018-02-19T23:21:16.288Z,88.65
2018-02-19T23:23:44.821Z,86.30
2018-02-19T23:26:14.298Z,88.62
2018-02-19T23:28:43.679Z,83.82
2018-02-19T23:31:12.838Z,83.03
2018-02-19T23:33:43.049Z,82.95
2018-02-19T23:53:27.390Z,85.03
2018-02-19T23:55:56.362Z,90.97
2018-02-19T23:58:24.948Z,86.15
